createdAt,value
2018-09-30T00:01:21.029Z,14.27
2018-09-30T00:03:49.710Z,11.93
2018-09-30T00:06:18.396Z,13.07
2018-09-30T00:08:47.270Z,9.70
2018-09-30T00:11:16.049Z,10.80
2018-09-30T00:13:44.829Z,12.60
2018-09-30T00:16:13.461Z,12.00
2018-09-30T00:18:42.036Z,12.40
2018-09-30T00:21:10.664Z,9.10
2018-09-30T00:23:44.906Z,9.73
2018-09-30T00:26:19.153Z,10.87
2018-09-30T00:28:47.901Z,10.57
2018-09-30T00:31:16.653Z,13.57
2018-09-30T00:33:50.899Z,9.20
2018-09-30T00:36:19.631Z,12.40
2018-09-30T00:38:48.221Z,11.60
2018-09-30T00:41:16.840Z,12.93
2018-09-30T00:43:45.441Z,10.17
2018-09-30T00:46:14.141Z,10.23
2018-09-30T00:48:42.870Z,9.87
2018-09-30T00:51:11.606Z,13.93
2018-09-30T00:53:40.313Z,14.97
2018-09-30T00:56:09.593Z,11.70
2018-09-30T00:58:39.215Z,9.60
2018-09-30T01:01:07.813Z,8.67
2018-09-30T01:03:36.451Z,10.60
2018-09-30T01:06:05.243Z,14.13
2018-09-30T01:08:34.040Z,8.43
2018-09-30T01:11:03.367Z,10.60
2018-09-30T01:13:32.256Z,9.70
2018-09-30T01:16:01.039Z,11.50
2018-09-30T01:18:29.884Z,6.73
2018-09-30T01:20:58.633Z,7.27
2018-09-30T01:23:27.378Z,8.33
2018-09-30T01:25:56.626Z,9.77
2018-09-30T01:28:25.920Z,8.57
2018-09-30T01:30:59.933Z,9.00
2018-09-30T01:33:31.236Z,14.63
2018-09-30T01:36:02.536Z,11.20
2018-09-30T01:38:33.926Z,10.10
2018-09-30T01:41:04.331Z,11.00
2018-09-30T01:43:33.068Z,9.53
2018-09-30T01:46:01.808Z,8.67
2018-09-30T01:48:30.508Z,12.43
2018-09-30T01:50:59.089Z,10.23
2018-09-30T01:53:27.729Z,10.33
2018-09-30T01:55:56.369Z,12.97
2018-09-30T01:58:25.128Z,8.73
2018-09-30T02:00:53.879Z,10.43
2018-09-30T02:03:22.589Z,11.27
2018-09-30T02:05:51.943Z,10.50
2018-09-30T02:08:20.573Z,7.80
2018-09-30T02:10:49.919Z,10.27
2018-09-30T02:13:18.513Z,9.27
2018-09-30T02:15:47.091Z,6.97
2018-09-30T02:18:15.736Z,11.23
2018-09-30T02:20:44.493Z,11.37
2018-09-30T02:23:13.201Z,11.60
2018-09-30T02:25:41.896Z,11.00
2018-09-30T02:28:10.589Z,10.37
2018-09-30T02:30:39.329Z,10.57
2018-09-30T02:33:08.045Z,9.67
2018-09-30T02:35:36.749Z,8.17
2018-09-30T02:38:06.006Z,8.83
2018-09-30T02:40:35.741Z,8.93
2018-09-30T02:43:04.394Z,6.67
2018-09-30T02:45:33.048Z,8.40
2018-09-30T02:48:01.714Z,10.37
2018-09-30T02:50:30.444Z,8.87
2018-09-30T02:52:59.123Z,6.90
2018-09-30T02:55:27.854Z,8.37
2018-09-30T02:57:56.566Z,6.83
2018-09-30T03:00:25.532Z,11.53
2018-09-30T03:06:21.188Z,7.33
2018-09-30T03:08:55.508Z,7.57
2018-09-30T03:11:24.329Z,8.60
2018-09-30T03:13:53.115Z,10.10
2018-09-30T03:16:21.836Z,11.90
2018-09-30T03:18:50.486Z,7.33
2018-09-30T03:21:19.128Z,8.03
2018-09-30T03:23:47.759Z,9.33
2018-09-30T03:26:16.427Z,8.00
2018-09-30T03:28:45.089Z,8.83
2018-09-30T03:31:13.753Z,8.03
2018-09-30T03:33:42.426Z,9.37
2018-09-30T03:36:11.235Z,11.70
2018-09-30T03:38:40.040Z,7.47
2018-09-30T03:41:08.847Z,12.30
2018-09-30T03:43:37.635Z,7.80
2018-09-30T03:46:06.386Z,10.13
2018-09-30T03:48:35.031Z,5.93
2018-09-30T03:51:03.791Z,8.27
2018-09-30T03:53:32.443Z,10.53
2018-09-30T03:56:01.105Z,8.97
2018-09-30T03:58:29.753Z,8.77
2018-09-30T04:00:58.395Z,9.10
2018-09-30T04:03:27.728Z,7.97
2018-09-30T04:05:56.417Z,10.47
2018-09-30T04:08:25.075Z,8.50
2018-09-30T04:10:53.735Z,10.77
2018-09-30T04:13:22.393Z,9.37
2018-09-30T04:15:51.147Z,7.53
2018-09-30T04:18:19.990Z,4.47
2018-09-30T04:20:48.660Z,7.50
2018-09-30T04:23:17.293Z,6.97
2018-09-30T04:25:45.956Z,6.37
2018-09-30T04:28:14.698Z,6.90
2018-09-30T04:30:43.436Z,8.80
2018-09-30T04:33:12.189Z,8.70
2018-09-30T04:35:40.953Z,6.33
2018-09-30T04:38:09.733Z,7.40
2018-09-30T04:40:38.480Z,8.67
2018-09-30T04:43:07.248Z,7.60
2018-09-30T04:45:36.021Z,6.03
2018-09-30T04:48:05.008Z,4.93
2018-09-30T04:53:34.108Z,5.97
2018-09-30T04:56:02.850Z,8.47
2018-09-30T04:58:31.508Z,8.03
2018-09-30T05:01:00.141Z,3.67
2018-09-30T05:03:28.756Z,6.70
2018-09-30T05:05:57.479Z,5.57
2018-09-30T05:08:26.128Z,6.67
2018-09-30T05:10:54.947Z,5.87
2018-09-30T05:13:23.521Z,7.20
2018-09-30T05:15:52.158Z,8.73
2018-09-30T05:18:20.730Z,8.00
2018-09-30T05:20:49.505Z,7.93
2018-09-30T05:23:18.348Z,6.97
2018-09-30T05:25:48.296Z,8.23
2018-09-30T05:28:17.156Z,6.87
2018-09-30T05:30:46.646Z,15.20
2018-09-30T05:33:16.113Z,12.03
2018-09-30T05:35:45.047Z,10.60
2018-09-30T05:38:15.251Z,6.67
2018-09-30T05:40:45.775Z,9.47
2018-09-30T05:43:14.688Z,9.33
2018-09-30T05:45:43.906Z,7.07
2018-09-30T05:48:12.683Z,5.50
2018-09-30T05:50:41.253Z,10.00
2018-09-30T05:53:09.801Z,6.03
2018-09-30T05:55:38.496Z,5.50
2018-09-30T05:58:07.345Z,7.07
2018-09-30T06:00:35.923Z,4.77
2018-09-30T06:03:04.473Z,6.10
2018-09-30T06:05:33.021Z,8.67
2018-09-30T06:08:01.565Z,9.57
2018-09-30T06:10:30.295Z,7.93
2018-09-30T06:13:04.675Z,7.30
2018-09-30T06:15:33.213Z,10.30
2018-09-30T06:18:01.740Z,5.60
2018-09-30T06:20:30.933Z,10.87
2018-09-30T06:22:59.426Z,8.70
2018-09-30T06:25:28.061Z,10.77
2018-09-30T06:28:02.131Z,8.27
2018-09-30T06:30:30.703Z,29.63
2018-09-30T06:32:59.276Z,27.80
2018-09-30T06:35:27.835Z,31.70
2018-09-30T06:37:56.398Z,23.13
2018-09-30T06:40:25.440Z,16.97
2018-09-30T06:42:54.060Z,10.17
2018-09-30T06:45:23.844Z,13.10
2018-09-30T06:47:52.566Z,10.87
2018-09-30T06:50:21.200Z,6.83
2018-09-30T06:52:49.855Z,10.27
2018-09-30T06:55:18.565Z,15.17
2018-09-30T06:57:47.546Z,14.00
2018-09-30T07:00:16.833Z,4.77
2018-09-30T07:02:46.181Z,7.47
2018-09-30T07:05:14.929Z,10.80
2018-09-30T07:07:43.634Z,7.73
2018-09-30T07:10:12.543Z,11.87
2018-09-30T07:12:41.777Z,6.53
2018-09-30T07:15:10.915Z,6.73
2018-09-30T07:17:39.792Z,9.70
2018-09-30T07:20:09.533Z,9.93
2018-09-30T07:22:39.128Z,7.83
2018-09-30T07:25:07.906Z,11.93
2018-09-30T07:27:36.460Z,12.83
2018-09-30T07:30:11.085Z,9.53
2018-09-30T07:32:45.236Z,8.70
2018-09-30T07:35:13.846Z,10.43
2018-09-30T07:37:42.398Z,10.87
2018-09-30T07:40:11.156Z,7.73
2018-09-30T07:42:40.768Z,10.30
2018-09-30T07:45:09.461Z,10.68
2018-09-30T07:47:38.127Z,8.20
2018-09-30T07:50:06.955Z,9.37
2018-09-30T07:52:35.664Z,6.90
2018-09-30T07:55:04.273Z,10.07
2018-09-30T07:57:32.974Z,5.90
2018-09-30T08:00:01.584Z,8.87
2018-09-30T08:02:30.127Z,10.58
2018-09-30T08:04:58.658Z,10.37
2018-09-30T08:07:27.288Z,10.25
2018-09-30T08:09:55.863Z,7.72
2018-09-30T08:12:24.599Z,8.15
2018-09-30T08:14:53.356Z,8.23
2018-09-30T08:17:22.763Z,6.70
2018-09-30T08:19:52.139Z,5.55
2018-09-30T08:22:20.788Z,9.78
2018-09-30T08:24:49.481Z,10.90
2018-09-30T08:27:18.153Z,7.85
2018-09-30T08:29:46.778Z,5.45
2018-09-30T08:32:15.338Z,5.70
2018-09-30T08:34:44.009Z,7.03
2018-09-30T08:37:12.659Z,8.03
2018-09-30T08:39:41.303Z,7.50
2018-09-30T08:42:10.814Z,7.53
2018-09-30T08:44:39.359Z,8.58
2018-09-30T08:47:13.489Z,8.70
2018-09-30T08:49:42.199Z,7.70
2018-09-30T08:52:11.325Z,7.25
2018-09-30T08:54:39.994Z,8.78
2018-09-30T08:57:08.706Z,6.87
2018-09-30T08:59:37.320Z,5.97
2018-09-30T09:02:06.019Z,5.95
2018-09-30T09:04:40.305Z,6.85
2018-09-30T09:07:08.974Z,3.85
2018-09-30T09:09:44.076Z,9.45
2018-09-30T09:12:12.990Z,6.20
2018-09-30T09:14:41.751Z,6.30
2018-09-30T09:17:10.512Z,9.45
2018-09-30T09:19:39.233Z,6.97
2018-09-30T09:22:07.974Z,6.40
2018-09-30T09:24:36.675Z,4.87
2018-09-30T09:27:11.084Z,7.03
2018-09-30T09:29:39.705Z,4.90
2018-09-30T09:32:13.978Z,7.35
2018-09-30T09:34:42.689Z,6.72
2018-09-30T09:37:11.431Z,14.00
2018-09-30T09:39:40.219Z,8.50
2018-09-30T09:42:09.301Z,6.35
2018-09-30T09:44:37.984Z,7.22
2018-09-30T09:47:06.827Z,5.78
2018-09-30T09:49:35.488Z,6.30
2018-09-30T09:52:04.142Z,5.00
2018-09-30T09:54:32.837Z,5.22
2018-09-30T09:57:01.479Z,5.70
2018-09-30T09:59:30.241Z,10.05
2018-09-30T10:01:58.954Z,6.87
2018-09-30T10:04:27.644Z,8.03
2018-09-30T10:06:56.366Z,9.75
2018-09-30T10:09:25.456Z,5.20
2018-09-30T10:11:54.236Z,6.15
2018-09-30T10:14:23.049Z,7.55
2018-09-30T10:16:51.763Z,8.55
2018-09-30T10:19:20.568Z,5.60
2018-09-30T10:21:49.244Z,7.25
2018-09-30T10:24:17.943Z,5.17
2018-09-30T10:26:46.708Z,5.03
2018-09-30T10:29:15.336Z,7.83
2018-09-30T10:31:43.993Z,5.50
2018-09-30T10:34:12.740Z,5.55
2018-09-30T10:36:41.451Z,6.33
2018-09-30T10:39:11.036Z,6.50
2018-09-30T10:41:40.061Z,7.50
2018-09-30T10:44:08.938Z,4.95
2018-09-30T10:46:37.786Z,6.92
2018-09-30T10:49:06.879Z,5.00
2018-09-30T10:51:35.539Z,7.25
2018-09-30T10:54:04.171Z,5.75
2018-09-30T10:56:33.514Z,4.45
2018-09-30T10:59:02.138Z,4.15
2018-09-30T11:01:36.251Z,4.08
2018-09-30T11:04:05.046Z,5.12
2018-09-30T11:06:33.853Z,7.22
2018-09-30T11:09:02.841Z,4.45
2018-09-30T11:11:31.563Z,5.40
2018-09-30T11:14:00.315Z,6.37
2018-09-30T11:16:29.189Z,7.33
2018-09-30T11:18:57.947Z,4.47
2018-09-30T11:21:26.736Z,6.92
2018-09-30T11:23:55.400Z,6.58
2018-09-30T11:26:24.060Z,5.22
2018-09-30T11:28:52.743Z,5.12
2018-09-30T11:31:21.360Z,5.10
2018-09-30T11:33:50.063Z,5.95
2018-09-30T11:36:18.769Z,5.92
2018-09-30T11:38:47.823Z,4.95
2018-09-30T11:41:16.633Z,6.08
2018-09-30T11:43:45.253Z,6.35
2018-09-30T11:46:13.856Z,9.20
2018-09-30T11:48:43.069Z,7.20
2018-09-30T11:51:17.361Z,6.55
2018-09-30T11:53:45.999Z,8.33
2018-09-30T11:56:14.584Z,6.42
2018-09-30T11:58:44.154Z,6.35
2018-09-30T12:01:18.477Z,5.28
2018-09-30T12:03:47.395Z,4.42
2018-09-30T12:06:21.624Z,7.40
2018-09-30T12:08:56.323Z,7.30
2018-09-30T12:11:30.469Z,7.60
2018-09-30T12:13:59.095Z,6.95
2018-09-30T12:16:28.206Z,6.97
2018-09-30T12:18:56.805Z,5.15
2018-09-30T12:21:25.434Z,6.15
2018-09-30T12:23:54.087Z,4.95
2018-09-30T12:26:23.374Z,4.97
2018-09-30T12:28:52.111Z,5.03
2018-09-30T12:31:20.790Z,5.87
2018-09-30T12:33:49.426Z,7.37
2018-09-30T12:36:23.583Z,5.85
2018-09-30T12:38:52.190Z,5.58
2018-09-30T12:41:20.909Z,6.53
2018-09-30T12:43:49.676Z,7.42
2018-09-30T12:46:18.422Z,4.35
2018-09-30T12:48:47.249Z,10.32
2018-09-30T12:51:21.421Z,7.17
2018-09-30T12:53:50.141Z,5.75
2018-09-30T12:56:18.793Z,6.25
2018-09-30T12:58:50.349Z,5.95
2018-09-30T13:01:24.610Z,5.58
2018-09-30T13:03:54.311Z,3.62
2018-09-30T13:06:22.965Z,6.65
2018-09-30T13:08:51.628Z,5.95
2018-09-30T13:11:20.304Z,7.22
2018-09-30T13:13:48.903Z,5.87
2018-09-30T13:16:19.456Z,4.92
2018-09-30T13:18:48.037Z,7.92
2018-09-30T13:21:17.809Z,6.67
2018-09-30T13:23:46.698Z,4.62
2018-09-30T13:26:15.973Z,7.85
2018-09-30T13:28:45.286Z,7.45
2018-09-30T13:31:14.049Z,8.28
2018-09-30T13:33:42.859Z,7.03
2018-09-30T13:36:11.558Z,7.42
2018-09-30T13:38:40.237Z,5.05
2018-09-30T13:41:09.330Z,5.87
2018-09-30T13:43:38.338Z,6.72
2018-09-30T13:46:07.133Z,8.68
2018-09-30T13:48:36.836Z,6.37
2018-09-30T13:51:05.340Z,4.33
2018-09-30T13:53:33.968Z,6.20
2018-09-30T13:56:02.538Z,6.53
2018-09-30T13:58:31.776Z,6.03
2018-09-30T14:01:00.541Z,5.80
2018-09-30T14:03:29.248Z,5.05
2018-09-30T14:05:57.941Z,4.35
2018-09-30T14:08:26.668Z,5.83
2018-09-30T14:10:55.386Z,6.12
2018-09-30T14:13:24.064Z,6.45
2018-09-30T14:15:52.850Z,4.62
2018-09-30T14:18:21.621Z,6.35
2018-09-30T14:20:50.285Z,5.17
2018-09-30T14:23:18.983Z,6.10
2018-09-30T14:25:47.556Z,5.08
2018-09-30T14:28:16.130Z,6.70
2018-09-30T14:30:44.772Z,5.83
2018-09-30T14:33:13.552Z,5.33
2018-09-30T14:35:42.291Z,4.78
2018-09-30T14:38:11.016Z,5.67
2018-09-30T14:40:39.670Z,6.22
2018-09-30T14:43:08.558Z,4.05
2018-09-30T14:45:37.331Z,4.15
2018-09-30T14:48:06.440Z,5.03
2018-09-30T14:50:35.124Z,7.72
2018-09-30T14:53:03.707Z,7.47
2018-09-30T14:55:33.212Z,4.72
2018-09-30T14:58:01.824Z,5.42
2018-09-30T15:00:36.035Z,4.83
2018-09-30T15:03:04.803Z,6.10
2018-09-30T15:05:33.485Z,7.25
2018-09-30T15:08:02.182Z,3.37
2018-09-30T15:10:30.796Z,7.50
2018-09-30T15:12:59.352Z,5.70
2018-09-30T15:15:27.933Z,7.22
2018-09-30T15:17:56.551Z,8.20
2018-09-30T15:20:25.153Z,4.80
2018-09-30T15:22:53.684Z,5.15
2018-09-30T15:25:27.701Z,3.87
2018-09-30T15:27:59.376Z,3.80
2018-09-30T15:30:28.164Z,6.20
2018-09-30T15:32:56.908Z,4.80
2018-09-30T15:35:25.638Z,5.03
2018-09-30T15:37:54.286Z,7.03
2018-09-30T15:40:22.964Z,3.95
2018-09-30T15:42:51.665Z,6.30
2018-09-30T15:45:20.396Z,6.33
2018-09-30T15:47:49.132Z,3.98
2018-09-30T15:50:17.886Z,3.05
2018-09-30T15:52:46.601Z,6.00
2018-09-30T15:55:15.334Z,5.90
2018-09-30T15:57:44.145Z,3.98
2018-09-30T16:00:12.772Z,5.33
2018-09-30T16:02:41.306Z,4.92
2018-09-30T16:05:09.846Z,6.30
2018-09-30T16:07:39.249Z,4.22
2018-09-30T16:10:07.792Z,6.67
2018-09-30T16:12:36.656Z,6.00
2018-09-30T16:15:06.167Z,4.67
2018-09-30T16:17:35.458Z,4.85
2018-09-30T16:20:04.266Z,9.70
2018-09-30T16:22:32.979Z,6.80
2018-09-30T16:25:01.749Z,5.40
2018-09-30T16:27:31.059Z,8.57
2018-09-30T16:29:59.824Z,3.83
2018-09-30T16:32:28.484Z,4.97
2018-09-30T16:34:57.627Z,7.87
2018-09-30T16:37:26.316Z,5.07
2018-09-30T16:39:55.029Z,7.20
2018-09-30T16:42:23.658Z,7.20
2018-09-30T16:44:52.857Z,6.10
2018-09-30T16:47:27.408Z,7.87
2018-09-30T16:49:56.074Z,6.07
2018-09-30T16:52:24.626Z,5.10
2018-09-30T16:54:53.289Z,5.60
2018-09-30T16:57:21.813Z,3.47
2018-09-30T16:59:50.454Z,5.77
2018-09-30T17:02:24.534Z,4.43
2018-09-30T17:04:58.739Z,7.27
2018-09-30T17:07:32.924Z,3.40
2018-09-30T17:10:01.529Z,4.30
2018-09-30T17:12:30.131Z,8.23
2018-09-30T17:15:04.495Z,6.07
2018-09-30T17:17:33.024Z,5.23
2018-09-30T17:20:02.382Z,8.53
2018-09-30T17:22:36.682Z,12.93
2018-09-30T17:25:05.646Z,9.57
2018-09-30T17:27:34.769Z,9.30
2018-09-30T17:30:05.799Z,8.80
2018-09-30T17:32:35.163Z,8.17
2018-09-30T17:35:04.206Z,14.73
2018-09-30T17:37:32.918Z,8.87
2018-09-30T17:40:01.724Z,9.13
2018-09-30T17:42:30.406Z,12.57
2018-09-30T17:44:59.261Z,12.03
2018-09-30T17:47:28.197Z,14.23
2018-09-30T17:49:57.416Z,18.20
2018-09-30T17:52:26.132Z,25.03
2018-09-30T17:54:54.846Z,29.07
2018-09-30T17:57:23.631Z,31.17
2018-09-30T17:59:52.396Z,30.90
2018-09-30T18:02:26.419Z,31.00
2018-09-30T18:04:55.121Z,29.73
2018-09-30T18:07:23.904Z,32.43
2018-09-30T18:09:52.611Z,32.20
2018-09-30T18:12:21.256Z,30.57
2018-09-30T18:14:55.820Z,27.30
2018-09-30T18:17:29.871Z,20.97
2018-09-30T18:19:58.539Z,26.37
2018-09-30T18:22:27.443Z,17.67
2018-09-30T18:24:56.293Z,20.23
2018-09-30T18:27:25.245Z,19.60
2018-09-30T18:29:53.944Z,17.07
2018-09-30T18:32:22.904Z,18.83
2018-09-30T18:34:51.709Z,18.87
2018-09-30T18:37:22.132Z,17.37
2018-09-30T18:39:50.858Z,15.90
2018-09-30T18:42:21.031Z,12.00
2018-09-30T18:44:50.792Z,8.77
2018-09-30T18:47:19.639Z,11.17
2018-09-30T18:49:48.500Z,10.00
2018-09-30T18:52:17.317Z,8.57
2018-09-30T18:54:45.979Z,7.13
2018-09-30T18:57:20.089Z,8.37
2018-09-30T18:59:49.445Z,9.40
2018-09-30T19:02:18.241Z,11.10
2018-09-30T19:04:47.516Z,11.17
2018-09-30T19:07:23.504Z,10.83
2018-09-30T19:09:57.856Z,12.37
2018-09-30T19:12:37.084Z,10.73
2018-09-30T19:15:05.934Z,14.23
2018-09-30T19:17:34.634Z,10.27
2018-09-30T19:20:04.009Z,10.10
2018-09-30T19:22:33.545Z,8.87
2018-09-30T19:25:02.377Z,10.17
2018-09-30T19:27:31.013Z,8.67
2018-09-30T19:30:05.405Z,9.60
2018-09-30T19:32:34.092Z,10.13
2018-09-30T19:35:03.281Z,5.47
2018-09-30T19:37:32.104Z,6.30
2018-09-30T19:40:01.457Z,7.97
2018-09-30T19:42:30.676Z,6.00
2018-09-30T19:45:00.359Z,7.03
2018-09-30T19:47:29.824Z,7.80
2018-09-30T19:49:59.700Z,10.50
2018-09-30T19:52:28.990Z,8.63
2018-09-30T19:54:58.211Z,10.13
2018-09-30T19:57:26.942Z,10.27
2018-09-30T20:00:01.360Z,9.10
2018-09-30T20:02:36.221Z,6.70
2018-09-30T20:05:05.126Z,6.07
2018-09-30T20:07:34.957Z,6.60
2018-09-30T20:10:04.684Z,4.70
2018-09-30T20:12:34.528Z,5.63
2018-09-30T20:15:05.247Z,9.37
2018-09-30T20:17:34.122Z,10.17
2018-09-30T20:20:02.917Z,5.53
2018-09-30T20:22:45.889Z,5.20
2018-09-30T20:25:14.544Z,6.57
2018-09-30T20:27:48.845Z,4.20
2018-09-30T20:30:17.602Z,7.53
2018-09-30T20:32:46.286Z,8.57
2018-09-30T20:35:14.882Z,8.60
2018-09-30T20:37:43.526Z,10.73
2018-09-30T20:40:12.212Z,7.07
2018-09-30T20:42:41.252Z,11.17
2018-09-30T20:45:19.429Z,8.30
2018-09-30T20:47:48.057Z,10.30
2018-09-30T20:50:22.359Z,7.47
2018-09-30T20:52:51.377Z,7.57
2018-09-30T20:55:20.144Z,5.80
2018-09-30T20:57:48.866Z,10.17
2018-09-30T21:00:17.659Z,10.97
2018-09-30T21:02:46.434Z,8.17
2018-09-30T21:06:44.216Z,7.70
2018-09-30T21:09:15.530Z,6.20
2018-09-30T21:11:44.341Z,8.47
2018-09-30T21:14:13.489Z,6.43
2018-09-30T21:16:42.268Z,7.03
2018-09-30T21:19:10.983Z,7.70
2018-09-30T21:21:39.755Z,5.30
2018-09-30T21:24:09.313Z,7.40
2018-09-30T21:26:37.984Z,8.30
2018-09-30T21:29:06.641Z,6.27
2018-09-30T21:31:35.277Z,11.77
2018-09-30T21:34:04.103Z,9.00
2018-09-30T21:36:32.829Z,5.67
2018-09-30T21:39:01.661Z,8.03
2018-09-30T21:41:30.404Z,7.00
2018-09-30T21:43:59.060Z,9.30
2018-09-30T21:46:27.660Z,6.60
2018-09-30T21:48:56.311Z,6.57
2018-09-30T21:51:24.931Z,5.53
2018-09-30T21:53:53.574Z,7.57
2018-09-30T21:56:23.496Z,6.33
2018-09-30T21:58:52.111Z,8.93
2018-09-30T22:01:20.808Z,6.70
2018-09-30T22:03:50.036Z,6.70
2018-09-30T22:06:18.842Z,7.43
2018-09-30T22:08:47.621Z,7.30
2018-09-30T22:11:16.436Z,9.37
2018-09-30T22:13:45.276Z,7.60
2018-09-30T22:16:14.076Z,5.73
2018-09-30T22:18:42.937Z,7.13
2018-09-30T22:21:12.897Z,5.50
2018-09-30T22:23:41.661Z,9.47
2018-09-30T22:26:10.319Z,7.93
2018-09-30T22:28:39.051Z,7.53
2018-09-30T22:31:07.844Z,6.77
2018-09-30T22:33:37.114Z,8.40
2018-09-30T22:36:05.841Z,9.63
2018-09-30T22:38:34.569Z,6.57
2018-09-30T22:41:03.236Z,7.27
2018-09-30T22:43:31.969Z,6.43
2018-09-30T22:46:00.833Z,7.37
2018-09-30T22:48:29.664Z,8.13
2018-09-30T22:50:59.549Z,7.10
2018-09-30T22:53:28.213Z,5.87
2018-09-30T22:55:57.354Z,6.07
2018-09-30T22:58:26.093Z,6.63
2018-09-30T23:00:54.836Z,8.30
2018-09-30T23:03:23.453Z,5.17
2018-09-30T23:05:52.256Z,6.63
2018-09-30T23:08:21.323Z,7.27
2018-09-30T23:10:50.359Z,7.13
2018-09-30T23:13:19.449Z,5.80
2018-09-30T23:15:48.203Z,7.63
2018-09-30T23:18:16.916Z,7.90
2018-09-30T23:20:45.614Z,5.80
2018-09-30T23:23:14.330Z,7.97
2018-09-30T23:25:43.085Z,8.77
2018-09-30T23:28:13.519Z,6.83
2018-09-30T23:30:42.225Z,6.90
2018-09-30T23:33:10.912Z,8.30
2018-09-30T23:35:39.605Z,9.00
2018-09-30T23:38:08.522Z,7.63
2018-09-30T23:40:37.305Z,8.80
2018-09-30T23:43:06.142Z,6.73
2018-09-30T23:45:34.868Z,9.90
2018-09-30T23:48:03.573Z,6.60
2018-09-30T23:50:32.226Z,8.13
2018-09-30T23:53:00.940Z,9.93
2018-09-30T23:55:29.640Z,8.73
2018-09-30T23:58:10.593Z,9.83
